Terminal Aerodrome Forecast
Issued by NWS

Home | Current Version | Previous Version | Text Only | Print | Product List | Glossary On
Versions: 1 2 3 4 5 6 7 8 9 10 11 12 13 14 15 16
614
FTUS43 KPAH 110528
TAFCGI
TAF
KCGI 110528Z 1106/1206 07004KT P6SM FEW045 SCT070
     FM111400 04007KT P6SM SKC
     FM120200 06006KT P6SM BKN130=

USA.gov is the U.S. government's official web portal to all federal, state and local government web resources and services.